createdAt,value
2022-12-06T00:01:18.947Z,100777.88
2022-12-06T00:03:47.536Z,100777.47
2022-12-06T00:06:17.637Z,100784.22
2022-12-06T00:08:45.136Z,100775.38
2022-12-06T00:11:18.539Z,100784.19
2022-12-06T00:13:46.363Z,100786.06
2022-12-06T00:16:16.065Z,100779.94
2022-12-06T00:18:44.787Z,100787.72
2022-12-06T00:21:18.283Z,100784.84
2022-12-06T00:23:47.723Z,100779.91
2022-12-06T00:26:15.234Z,100788.16
2022-12-06T00:28:44.337Z,100781.97
2022-12-06T00:31:14.998Z,100783.19
2022-12-06T00:33:41.818Z,100774.34
2022-12-06T00:36:15.870Z,100773.69
2022-12-06T00:38:43.205Z,100772.91
2022-12-06T00:41:13.268Z,100777.06
2022-12-06T00:43:40.793Z,100781.56
2022-12-06T00:46:12.057Z,100771.44
2022-12-06T00:48:38.760Z,100772.91
2022-12-06T00:51:05.787Z,100763.88
2022-12-06T00:53:32.773Z,100768.63
2022-12-06T00:55:59.514Z,100760.63
2022-12-06T00:58:26.367Z,100762.44
2022-12-06T01:00:55.947Z,100769.41
2022-12-06T01:03:23.966Z,100756.09
2022-12-06T01:05:52.157Z,100757.50
2022-12-06T01:08:20.465Z,100765.31
2022-12-06T01:10:56.995Z,100758.16
2022-12-06T01:13:24.137Z,100758.72
2022-12-06T01:15:51.005Z,100761.81
2022-12-06T01:18:17.614Z,100759.75
2022-12-06T01:20:44.249Z,100757.06
2022-12-06T01:23:10.870Z,100765.94
2022-12-06T01:25:38.835Z,100763.47
2022-12-06T01:28:06.068Z,100771.28
2022-12-06T01:30:32.687Z,100755.66
2022-12-06T01:32:59.437Z,100761.28
2022-12-06T01:35:26.371Z,100767.13
2022-12-06T01:37:55.595Z,100768.38
2022-12-06T01:40:22.259Z,100764.66
2022-12-06T01:42:49.018Z,100763.00
2022-12-06T01:45:15.655Z,100764.88
2022-12-06T01:47:44.038Z,100763.50
2022-12-06T01:50:25.752Z,100766.75
2022-12-06T01:53:10.988Z,100766.75
2022-12-06T01:55:40.041Z,100764.69
2022-12-06T01:58:12.607Z,100765.09
2022-12-06T02:00:39.369Z,100769.00
2022-12-06T02:03:12.252Z,100762.22
2022-12-06T02:05:40.857Z,100767.34
2022-12-06T02:08:09.919Z,100758.09
2022-12-06T02:10:38.885Z,100764.22
2022-12-06T02:13:07.477Z,100763.34
2022-12-06T02:16:21.990Z,100757.19
2022-12-06T02:19:12.873Z,100753.91
2022-12-06T02:22:03.087Z,100748.94
2022-12-06T02:24:55.705Z,100751.13
2022-12-06T02:27:37.841Z,100751.56
2022-12-06T02:30:23.332Z,100747.88
2022-12-06T02:32:55.041Z,100744.13
2022-12-06T02:35:42.691Z,100744.75
2022-12-06T02:38:16.743Z,100739.44
2022-12-06T02:40:54.133Z,100743.56
2022-12-06T02:43:31.333Z,100740.69
2022-12-06T02:46:02.297Z,100738.03
2022-12-06T02:48:31.463Z,100740.06
2022-12-06T02:51:12.889Z,100734.09
2022-12-06T02:53:46.761Z,100737.34
2022-12-06T02:56:16.513Z,100730.59
2022-12-06T02:58:43.428Z,100729.78
2022-12-06T03:01:43.750Z,100726.88
2022-12-06T03:04:46.835Z,100723.53
2022-12-06T03:07:25.761Z,100725.78
2022-12-06T03:10:10.843Z,100725.25
2022-12-06T03:13:01.781Z,100727.31
2022-12-06T03:15:51.283Z,100730.41
2022-12-06T03:18:32.091Z,100716.03
2022-12-06T03:21:13.843Z,100712.78
2022-12-06T03:23:43.695Z,100717.50
2022-12-06T03:26:14.227Z,100719.94
2022-12-06T03:28:43.210Z,100713.78
2022-12-06T03:31:12.966Z,100714.38
2022-12-06T03:33:57.331Z,100711.72
2022-12-06T03:36:27.397Z,100709.88
2022-12-06T03:38:58.430Z,100708.22
2022-12-06T03:41:31.107Z,100710.91
2022-12-06T03:43:59.591Z,100710.50
2022-12-06T03:46:44.258Z,100719.31
2022-12-06T03:49:26.538Z,100714.56
2022-12-06T03:51:53.256Z,100721.38
2022-12-06T03:54:20.267Z,100714.56
2022-12-06T03:56:46.910Z,100712.53
2022-12-06T03:59:13.546Z,100715.72
2022-12-06T04:01:40.548Z,100709.44
2022-12-06T04:04:07.296Z,100707.28
2022-12-06T04:06:34.166Z,100705.06
2022-12-06T04:09:19.588Z,100701.47
2022-12-06T04:11:46.817Z,100700.16
2022-12-06T04:14:13.674Z,100701.97
2022-12-06T04:16:59.139Z,100702.63
2022-12-06T04:19:25.760Z,100698.09
2022-12-06T04:22:10.906Z,100688.13
2022-12-06T04:24:37.922Z,100692.84
2022-12-06T04:27:23.404Z,100686.69
2022-12-06T04:30:08.486Z,100697.13
2022-12-06T04:32:53.953Z,100686.78
2022-12-06T04:35:39.118Z,100684.84
2022-12-06T04:38:24.488Z,100684.97
2022-12-06T04:40:51.092Z,100680.03
2022-12-06T04:43:36.166Z,100676.00
2022-12-06T04:46:03.123Z,100668.81
2022-12-06T04:48:29.853Z,100676.56
2022-12-06T04:50:56.594Z,100672.53
2022-12-06T04:53:23.423Z,100668.63
2022-12-06T04:55:50.502Z,100677.56
2022-12-06T04:58:17.534Z,100668.09
2022-12-06T05:00:44.326Z,100665.78
2022-12-06T05:03:12.564Z,100675.31
2022-12-06T05:05:39.872Z,100679.63
2022-12-06T05:08:08.320Z,100669.47
2022-12-06T05:10:35.115Z,100671.84
2022-12-06T05:13:01.859Z,100664.94
2022-12-06T05:15:29.790Z,100668.09
2022-12-06T05:17:56.865Z,100671.63
2022-12-06T05:20:23.730Z,100669.56
2022-12-06T05:22:50.489Z,100671.63
2022-12-06T05:25:17.287Z,100669.91
2022-12-06T05:27:44.748Z,100671.44
2022-12-06T05:30:12.215Z,100671.63
2022-12-06T05:32:39.882Z,100675.59
2022-12-06T05:35:10.324Z,100674.94
2022-12-06T05:37:36.912Z,100674.03
2022-12-06T05:40:04.123Z,100679.84
2022-12-06T05:42:31.118Z,100683.34
2022-12-06T05:44:57.782Z,100681.88
2022-12-06T05:47:24.402Z,100678.59
2022-12-06T05:49:51.198Z,100673.00
2022-12-06T05:52:17.954Z,100684.56
2022-12-06T05:54:44.550Z,100676.50
2022-12-06T05:57:11.211Z,100689.91
2022-12-06T05:59:37.906Z,100690.06
2022-12-06T06:02:04.824Z,100689.78
2022-12-06T06:04:34.069Z,100690.59
2022-12-06T06:07:00.931Z,100688.06
2022-12-06T06:09:28.088Z,100685.88
2022-12-06T06:11:55.959Z,100693.59
2022-12-06T06:14:22.930Z,100693.88
2022-12-06T06:16:49.809Z,100694.00
2022-12-06T06:19:16.775Z,100691.72
2022-12-06T06:21:43.407Z,100701.75
2022-12-06T06:24:10.257Z,100695.66
2022-12-06T06:26:37.056Z,100695.84
2022-12-06T06:29:03.713Z,100689.03
2022-12-06T06:31:30.445Z,100693.94
2022-12-06T06:33:57.383Z,100691.69
2022-12-06T06:36:24.171Z,100697.63
2022-12-06T06:38:50.871Z,100692.13
2022-12-06T06:41:17.521Z,100698.19
2022-12-06T06:43:44.166Z,100690.84
2022-12-06T06:46:10.951Z,100696.34
2022-12-06T06:48:39.562Z,100692.50
2022-12-06T06:51:12.329Z,100695.03
2022-12-06T06:53:39.689Z,100700.94
2022-12-06T06:56:07.728Z,100697.28
2022-12-06T06:58:34.571Z,100692.78
2022-12-06T07:01:03.738Z,100697.00
2022-12-06T07:03:30.566Z,100698.09
2022-12-06T07:06:01.150Z,100700.53
2022-12-06T07:08:30.426Z,100689.78
2022-12-06T07:10:57.696Z,100696.19
2022-12-06T07:13:26.310Z,100701.03
2022-12-06T07:15:53.435Z,100694.09
2022-12-06T07:18:20.785Z,100703.31
2022-12-06T07:20:48.495Z,100702.81
2022-12-06T07:23:16.098Z,100692.38
2022-12-06T07:25:42.889Z,100691.06
2022-12-06T07:28:09.512Z,100700.53
2022-12-06T07:30:36.240Z,100702.47
2022-12-06T07:33:03.168Z,100699.75
2022-12-06T07:35:48.821Z,100711.09
2022-12-06T07:38:16.649Z,100709.50
2022-12-06T07:43:48.986Z,100701.97
2022-12-06T07:46:15.630Z,100699.91
2022-12-06T07:48:42.396Z,100704.13
2022-12-06T07:51:09.134Z,100706.16
2022-12-06T07:53:35.753Z,100709.84
2022-12-06T07:56:07.908Z,100704.06
2022-12-06T07:58:35.560Z,100703.44
2022-12-06T08:01:04.147Z,100703.88
2022-12-06T08:03:30.892Z,100702.91
2022-12-06T08:05:58.575Z,100698.31
2022-12-06T08:08:28.946Z,100702.00
2022-12-06T08:11:00.355Z,100701.47
2022-12-06T08:13:28.152Z,100711.75
2022-12-06T08:15:55.378Z,100707.03
2022-12-06T08:18:22.294Z,100710.75
2022-12-06T08:20:49.078Z,100716.72
2022-12-06T08:23:15.718Z,100712.06
2022-12-06T08:25:42.345Z,100711.19
2022-12-06T08:28:08.911Z,100707.63
2022-12-06T08:30:42.593Z,100705.81
2022-12-06T08:33:09.370Z,100710.22
2022-12-06T08:35:37.441Z,100713.56
2022-12-06T08:38:04.114Z,100704.63
2022-12-06T08:40:33.031Z,100703.75
2022-12-06T08:42:59.706Z,100702.56
2022-12-06T08:45:26.461Z,100701.38
2022-12-06T08:47:54.434Z,100701.88
2022-12-06T08:50:21.296Z,100699.06
2022-12-06T08:52:47.944Z,100695.47
2022-12-06T08:55:14.642Z,100692.56
2022-12-06T08:57:41.211Z,100692.53
2022-12-06T09:00:09.644Z,100692.53
2022-12-06T09:02:39.414Z,100697.97
2022-12-06T09:05:06.717Z,100697.66
2022-12-06T09:07:33.568Z,100706.72
2022-12-06T09:10:00.676Z,100712.94
2022-12-06T09:12:30.371Z,100708.00
2022-12-06T09:14:57.224Z,100707.41
2022-12-06T09:17:23.900Z,100707.00
2022-12-06T09:19:50.611Z,100707.63
2022-12-06T09:22:17.530Z,100709.88
2022-12-06T09:24:44.255Z,100707.94
2022-12-06T09:27:10.977Z,100712.31
2022-12-06T09:29:40.711Z,100714.81
2022-12-06T09:32:07.795Z,100709.28
2022-12-06T09:34:34.382Z,100713.97
2022-12-06T09:37:09.819Z,100717.88
2022-12-06T09:39:48.676Z,100719.56
2022-12-06T09:43:09.149Z,100729.81
2022-12-06T09:45:50.655Z,100718.13
2022-12-06T09:48:49.205Z,100726.50
2022-12-06T09:51:50.080Z,100723.63
2022-12-06T09:54:33.729Z,100724.25
2022-12-06T09:57:03.955Z,100720.94
2022-12-06T10:00:03.727Z,100725.25
2022-12-06T10:02:54.196Z,100724.03
2022-12-06T10:05:55.311Z,100717.50
2022-12-06T10:08:51.938Z,100728.56
2022-12-06T10:11:31.130Z,100721.38
2022-12-06T10:14:25.113Z,100721.78
2022-12-06T10:17:04.028Z,100721.56
2022-12-06T10:19:50.537Z,100717.69
2022-12-06T10:23:13.043Z,100715.84
2022-12-06T10:26:04.762Z,100718.91
2022-12-06T10:28:44.445Z,100715.00
2022-12-06T10:31:17.268Z,100701.91
2022-12-06T10:33:56.286Z,100714.81
2022-12-06T10:36:29.603Z,100715.03
2022-12-06T10:39:05.071Z,100722.00
2022-12-06T10:41:38.534Z,100716.28
2022-12-06T10:44:20.342Z,100706.81
2022-12-06T10:47:12.924Z,100710.94
2022-12-06T10:49:44.339Z,100711.56
2022-12-06T10:52:42.161Z,100715.03
2022-12-06T10:55:08.806Z,100709.25
2022-12-06T10:58:12.857Z,100709.50
2022-12-06T11:00:54.410Z,100708.03
2022-12-06T11:03:34.928Z,100711.13
2022-12-06T11:06:37.021Z,100711.75
2022-12-06T11:09:23.603Z,100715.84
2022-12-06T11:11:50.688Z,100725.50
2022-12-06T11:14:38.165Z,100723.63
2022-12-06T11:17:14.792Z,100719.56
2022-12-06T11:19:48.572Z,100709.47
2022-12-06T11:22:37.226Z,100722.00
2022-12-06T11:25:29.885Z,100719.34
2022-12-06T11:28:29.638Z,100707.81
2022-12-06T11:30:57.785Z,100711.34
2022-12-06T11:33:33.693Z,100712.97
2022-12-06T11:36:05.561Z,100709.25
2022-12-06T11:38:34.294Z,100705.56
2022-12-06T11:41:03.059Z,100695.09
2022-12-06T11:43:34.980Z,100689.31
2022-12-06T11:46:06.391Z,100692.81
2022-12-06T11:48:35.611Z,100683.78
2022-12-06T11:51:03.048Z,100691.81
2022-12-06T11:53:39.423Z,100693.88
2022-12-06T11:56:22.629Z,100692.84
2022-12-06T11:59:02.769Z,100682.16
2022-12-06T12:02:03.635Z,100680.50
2022-12-06T12:04:42.876Z,100674.31
2022-12-06T12:07:09.484Z,100676.38
2022-12-06T12:09:47.295Z,100672.06
2022-12-06T12:12:46.579Z,100669.16
2022-12-06T12:15:18.632Z,100669.00
2022-12-06T12:17:48.244Z,100672.31
2022-12-06T12:20:26.783Z,100676.78
2022-12-06T12:23:04.260Z,100678.84
2022-12-06T12:25:34.472Z,100677.22
2022-12-06T12:28:02.666Z,100671.25
2022-12-06T12:30:33.153Z,100670.56
2022-12-06T12:33:06.086Z,100668.78
2022-12-06T12:35:34.868Z,100672.28
2022-12-06T12:38:11.223Z,100681.50
2022-12-06T12:40:47.382Z,100680.50
2022-12-06T12:43:24.234Z,100679.63
2022-12-06T12:46:10.088Z,100682.13
2022-12-06T12:48:42.557Z,100686.19
2022-12-06T12:51:37.309Z,100683.75
2022-12-06T12:54:27.647Z,100678.81
2022-12-06T12:56:55.305Z,100681.47
2022-12-06T12:59:25.466Z,100675.72
2022-12-06T13:02:23.913Z,100680.44
2022-12-06T13:05:11.064Z,100685.69
2022-12-06T13:07:42.496Z,100673.22
2022-12-06T13:10:18.561Z,100678.41
2022-12-06T13:13:02.374Z,100680.03
2022-12-06T13:15:37.284Z,100672.56
2022-12-06T13:18:15.242Z,100663.00
2022-12-06T13:20:42.631Z,100666.41
2022-12-06T13:23:17.237Z,100669.41
2022-12-06T13:25:56.246Z,100669.78
2022-12-06T13:28:29.407Z,100670.56
2022-12-06T13:31:04.107Z,100662.06
2022-12-06T13:33:33.101Z,100657.81
2022-12-06T13:36:09.173Z,100660.25
2022-12-06T13:38:38.463Z,100658.03
2022-12-06T13:41:54.525Z,100655.22
2022-12-06T13:44:50.829Z,100659.31
2022-12-06T13:47:41.156Z,100655.00
2022-12-06T13:50:19.884Z,100649.91
2022-12-06T13:52:49.439Z,100659.91
2022-12-06T13:55:25.622Z,100667.28
2022-12-06T13:57:55.669Z,100662.75
2022-12-06T14:00:28.792Z,100670.59
2022-12-06T14:03:09.050Z,100666.03
2022-12-06T14:06:13.853Z,100666.88
2022-12-06T14:08:51.826Z,100668.59
2022-12-06T14:11:27.722Z,100669.84
2022-12-06T14:13:58.304Z,100664.09
2022-12-06T14:16:34.048Z,100669.44
2022-12-06T14:19:11.520Z,100667.94
2022-12-06T14:21:40.614Z,100661.22
2022-12-06T14:24:24.356Z,100665.88
2022-12-06T14:26:51.114Z,100666.94
2022-12-06T14:29:23.549Z,100670.66
2022-12-06T14:31:52.293Z,100668.16
2022-12-06T14:34:31.268Z,100667.91
2022-12-06T14:36:59.944Z,100669.34
2022-12-06T14:39:29.713Z,100666.47
2022-12-06T14:42:21.700Z,100667.88
2022-12-06T14:44:51.299Z,100663.22
2022-12-06T14:47:21.468Z,100662.06
2022-12-06T14:50:12.050Z,100661.19
2022-12-06T14:53:01.386Z,100668.31
2022-12-06T14:55:31.280Z,100665.97
2022-12-06T14:58:13.554Z,100662.72
2022-12-06T15:00:55.313Z,100665.22
2022-12-06T15:03:38.149Z,100651.84
2022-12-06T15:06:26.074Z,100659.38
2022-12-06T15:08:58.824Z,100657.41
2022-12-06T15:11:57.982Z,100655.16
2022-12-06T15:14:39.939Z,100655.38
2022-12-06T15:17:09.613Z,100660.97
2022-12-06T15:19:40.164Z,100658.72
2022-12-06T15:22:24.798Z,100660.78
2022-12-06T15:24:55.427Z,100660.75
2022-12-06T15:27:26.686Z,100656.25
2022-12-06T15:29:53.839Z,100654.88
2022-12-06T15:32:24.927Z,100654.66
2022-12-06T15:34:51.767Z,100651.16
2022-12-06T15:40:08.962Z,100655.25
2022-12-06T15:42:38.622Z,100660.59
2022-12-06T15:45:06.913Z,100649.28
2022-12-06T15:47:36.286Z,100660.59
2022-12-06T15:50:04.264Z,100661.22
2022-12-06T15:52:30.972Z,100657.91
2022-12-06T15:54:57.730Z,100653.84
2022-12-06T15:57:24.354Z,100655.88
2022-12-06T15:59:50.957Z,100662.63
2022-12-06T16:02:18.666Z,100671.28
2022-12-06T16:04:48.651Z,100665.72
2022-12-06T16:07:19.243Z,100672.94
2022-12-06T16:09:47.864Z,100660.59
2022-12-06T16:12:14.503Z,100663.88
2022-12-06T16:17:50.358Z,100667.38
2022-12-06T16:20:32.908Z,100665.72
2022-12-06T16:24:11.404Z,100674.75
2022-12-06T16:26:37.268Z,100673.50
2022-12-06T16:29:06.476Z,100669.63
2022-12-06T16:31:38.552Z,100672.72
2022-12-06T16:34:05.914Z,100671.91
2022-12-06T16:36:33.989Z,100674.38
2022-12-06T16:39:05.700Z,100674.81
2022-12-06T16:41:35.520Z,100669.44
2022-12-06T16:44:03.093Z,100663.91
2022-12-06T16:46:34.669Z,100668.41
2022-12-06T16:49:36.755Z,100667.59
2022-12-06T16:51:50.654Z,100664.50
2022-12-06T16:54:17.751Z,100655.47
2022-12-06T16:56:46.260Z,100659.16
2022-12-06T16:59:15.419Z,100658.97
2022-12-06T17:01:55.252Z,100654.63
2022-12-06T17:04:22.866Z,100655.06
2022-12-06T17:06:49.726Z,100657.13
2022-12-06T17:09:16.796Z,100657.50
2022-12-06T17:12:02.933Z,100655.47
2022-12-06T17:14:29.955Z,100660.41
2022-12-06T17:16:57.162Z,100653.59
2022-12-06T17:19:28.592Z,100653.00
2022-12-06T17:21:56.265Z,100657.53
2022-12-06T17:24:25.784Z,100655.06
2022-12-06T17:26:55.169Z,100649.28
2022-12-06T17:29:23.415Z,100664.69
2022-12-06T17:31:51.307Z,100662.41
2022-12-06T17:34:19.389Z,100657.69
2022-12-06T17:36:48.749Z,100652.63
2022-12-06T17:39:18.896Z,100658.94
2022-12-06T17:42:05.060Z,100656.06
2022-12-06T17:44:33.935Z,100658.97
2022-12-06T17:47:01.632Z,100660.78
2022-12-06T17:49:29.599Z,100662.03
2022-12-06T17:51:57.166Z,100668.63
2022-12-06T17:54:24.543Z,100669.03
2022-12-06T17:56:53.132Z,100672.31
2022-12-06T17:59:22.759Z,100670.66
2022-12-06T18:02:14.175Z,100659.78
2022-12-06T18:04:38.922Z,100669.41
2022-12-06T18:07:06.778Z,100671.47
2022-12-06T18:09:33.458Z,100665.72
2022-12-06T18:12:01.130Z,100669.66
2022-12-06T18:14:28.233Z,100670.22
2022-12-06T18:16:55.798Z,100673.91
2022-12-06T18:19:23.189Z,100672.09
2022-12-06T18:21:52.241Z,100671.06
2022-12-06T18:24:22.001Z,100678.06
2022-12-06T18:26:50.472Z,100677.63
2022-12-06T18:29:21.547Z,100669.81
2022-12-06T18:31:48.952Z,100669.41
2022-12-06T18:34:19.090Z,100676.19
2022-12-06T18:36:46.233Z,100676.00
2022-12-06T18:39:16.206Z,100679.25
2022-12-06T18:41:45.001Z,100675.59
2022-12-06T18:44:13.233Z,100671.88
2022-12-06T18:46:45.969Z,100679.28
2022-12-06T18:49:13.223Z,100680.94
2022-12-06T18:51:40.117Z,100678.25
2022-12-06T18:54:08.007Z,100680.31
2022-12-06T18:56:35.635Z,100685.44
2022-12-06T18:59:06.502Z,100675.56
2022-12-06T19:01:35.925Z,100687.41
2022-12-06T19:04:05.193Z,100683.19
2022-12-06T19:06:34.977Z,100683.38
2022-12-06T19:09:09.292Z,100685.00
2022-12-06T19:11:40.256Z,100684.41
2022-12-06T19:14:07.607Z,100688.13
2022-12-06T19:16:43.628Z,100693.47
2022-12-06T19:19:16.906Z,100685.06
2022-12-06T19:21:48.872Z,100681.78
2022-12-06T19:24:19.973Z,100673.31
2022-12-06T19:26:48.570Z,100678.47
2022-12-06T19:29:15.918Z,100677.66
2022-12-06T19:31:43.981Z,100679.63
2022-12-06T19:34:23.896Z,100677.19
2022-12-06T19:36:53.036Z,100672.50
2022-12-06T19:39:21.050Z,100679.91
2022-12-06T19:42:08.002Z,100672.75
2022-12-06T19:44:35.176Z,100673.34
2022-12-06T19:47:02.261Z,100678.09
2022-12-06T19:49:29.326Z,100683.81
2022-12-06T19:51:56.333Z,100677.84
2022-12-06T19:54:30.141Z,100674.38
2022-12-06T19:56:59.176Z,100668.63
2022-12-06T19:59:31.080Z,100677.25
2022-12-06T20:01:58.397Z,100679.72
2022-12-06T20:04:28.595Z,100674.78
2022-12-06T20:06:55.886Z,100675.59
2022-12-06T20:09:26.901Z,100680.50
2022-12-06T20:12:04.003Z,100675.63
2022-12-06T20:14:48.112Z,100683.44
2022-12-06T20:17:19.052Z,100682.56
2022-12-06T20:19:51.569Z,100675.59
2022-12-06T20:22:19.775Z,100686.69
2022-12-06T20:24:46.831Z,100689.50
2022-12-06T20:27:14.948Z,100683.38
2022-12-06T20:29:42.207Z,100684.03
2022-12-06T20:32:10.220Z,100678.28
2022-12-06T20:34:38.278Z,100687.72
2022-12-06T20:37:07.018Z,100697.16
2022-12-06T20:39:35.436Z,100691.22
2022-12-06T20:42:03.371Z,100686.91
2022-12-06T20:44:30.967Z,100694.09
2022-12-06T20:47:01.845Z,100697.78
2022-12-06T20:49:29.701Z,100683.78
2022-12-06T20:52:02.075Z,100689.38
2022-12-06T20:54:30.017Z,100694.28
2022-12-06T20:57:00.483Z,100682.81
2022-12-06T20:59:29.192Z,100689.75
2022-12-06T21:01:56.007Z,100698.59
2022-12-06T21:04:22.737Z,100700.66
2022-12-06T21:06:49.456Z,100689.16
2022-12-06T21:09:16.392Z,100694.28
2022-12-06T21:11:43.662Z,100696.94
2022-12-06T21:14:12.863Z,100686.47
2022-12-06T21:16:41.372Z,100684.63
2022-12-06T21:19:14.648Z,100688.75
2022-12-06T21:21:59.451Z,100683.41
2022-12-06T21:24:29.554Z,100677.03
2022-12-06T21:26:56.346Z,100678.06
2022-12-06T21:29:30.396Z,100682.78
2022-12-06T21:32:00.893Z,100684.00
2022-12-06T21:34:27.684Z,100683.19
2022-12-06T21:36:54.308Z,100687.72
2022-12-06T21:39:21.118Z,100684.63
2022-12-06T21:41:49.972Z,100683.00
2022-12-06T21:44:16.863Z,100687.09
2022-12-06T21:46:43.702Z,100690.78
2022-12-06T21:49:10.859Z,100683.81
2022-12-06T21:51:38.082Z,100676.00
2022-12-06T21:54:05.165Z,100689.38
2022-12-06T21:56:32.966Z,100685.00
2022-12-06T21:59:01.101Z,100691.00
2022-12-06T22:01:30.339Z,100694.47
2022-12-06T22:03:59.901Z,100700.84
2022-12-06T22:06:32.287Z,100698.41
2022-12-06T22:09:01.763Z,100692.66
2022-12-06T22:11:29.841Z,100692.84
2022-12-06T22:13:58.791Z,100690.38
2022-12-06T22:16:26.355Z,100687.09
2022-12-06T22:18:55.058Z,100696.97
2022-12-06T22:21:24.860Z,100693.66
2022-12-06T22:23:51.805Z,100698.81
2022-12-06T22:26:21.581Z,100694.28
2022-12-06T22:28:50.076Z,100702.09
2022-12-06T22:31:22.628Z,100692.84
2022-12-06T22:33:50.516Z,100690.81
2022-12-06T22:36:18.613Z,100696.31
2022-12-06T22:38:53.799Z,100689.75
2022-12-06T22:41:21.867Z,100694.94
2022-12-06T22:43:53.338Z,100689.56
2022-12-06T22:46:20.892Z,100683.00
2022-12-06T22:48:49.606Z,100687.50
2022-12-06T22:51:20.601Z,100692.63
2022-12-06T22:53:52.366Z,100690.78
2022-12-06T22:56:20.732Z,100695.09
2022-12-06T22:58:53.715Z,100696.53
2022-12-06T23:01:22.361Z,100684.66
2022-12-06T23:03:51.194Z,100681.56
2022-12-06T23:06:20.323Z,100673.56
2022-12-06T23:08:48.604Z,100679.53
2022-12-06T23:11:42.130Z,100682.38
2022-12-06T23:14:09.013Z,100685.47
2022-12-06T23:16:35.845Z,100678.50
2022-12-06T23:19:04.581Z,100675.41
2022-12-06T23:21:36.230Z,100677.66
2022-12-06T23:24:09.429Z,100681.56
2022-12-06T23:26:39.417Z,100675.81
2022-12-06T23:29:07.179Z,100684.22
2022-12-06T23:31:36.985Z,100685.00
2022-12-06T23:34:08.096Z,100686.91
2022-12-06T23:36:35.654Z,100694.06
2022-12-06T23:39:04.470Z,100684.56
2022-12-06T23:41:33.272Z,100686.69
2022-12-06T23:44:00.348Z,100692.03
2022-12-06T23:46:30.143Z,100680.56
2022-12-06T23:48:57.726Z,100675.19
2022-12-06T23:51:27.031Z,100678.06
2022-12-06T23:53:59.381Z,100669.25
2022-12-06T23:56:29.481Z,100673.16
2022-12-06T23:58:56.473Z,100671.22
